Time;durP1;ratioP1;P1;durP2;ratioP2;P2;SDS_P1;SDS_P2;PMS_P1;PMS_P2;Temp;Humidity;BMP_temperature;BMP_pressure;BME280_temperature;BME280_humidity;BME280_pressure;Samples;Min_cycle;Max_cycle;Signal;HPM_P1;HPM_P2
2022/07/06 00:02:15;;;;;;;;;3.67;3.67;;;;;21.33;52.95;102387.22;5059990;28;45789;-69
2022/07/06 00:04:41;;;;;;;;;2.67;2.67;;;;;21.36;52.88;102399.84;5062896;28;45397;-69
2022/07/06 00:07:06;;;;;;;;;3.00;3.00;;;;;21.32;52.85;102392.94;5071879;27;45401;-68
2022/07/06 00:09:32;;;;;;;;;3.67;2.00;;;;;21.39;51.94;102399.47;5063557;28;45537;-69
2022/07/06 00:11:58;;;;;;;;;3.00;3.00;;;;;21.28;54.21;102405.38;5058567;28;45423;-68
2022/07/06 00:14:23;;;;;;;;;4.00;4.00;;;;;21.18;54.37;102390.94;5062270;28;45231;-69
2022/07/06 00:16:48;;;;;;;;;4.00;4.00;;;;;21.21;54.86;102390.56;5060084;28;45755;-68
2022/07/06 00:19:14;;;;;;;;;2.00;2.00;;;;;21.21;54.43;102398.84;5063057;28;45610;-68
2022/07/06 00:21:39;;;;;;;;;5.00;3.00;;;;;21.09;54.71;102394.72;5058527;28;46290;-68
2022/07/06 00:24:05;;;;;;;;;3.00;3.00;;;;;21.10;54.67;102399.22;5059549;28;45251;-68
2022/07/06 00:26:30;;;;;;;;;3.00;2.67;;;;;21.02;55.82;102382.66;5057796;28;45464;-68
2022/07/06 00:28:55;;;;;;;;;3.67;3.67;;;;;21.06;54.95;102392.31;5059968;28;45651;-68
2022/07/06 00:31:21;;;;;;;;;2.00;2.00;;;;;20.95;56.62;102394.41;5058878;28;45588;-69
2022/07/06 00:33:46;;;;;;;;;2.67;2.67;;;;;21.03;55.56;102384.38;5061002;28;45285;-68
2022/07/06 00:36:11;;;;;;;;;3.00;3.00;;;;;21.02;56.43;102393.72;5059856;28;45367;-68
2022/07/06 00:38:37;;;;;;;;;5.33;4.00;;;;;21.01;55.96;102386.44;5063058;28;45411;-69
2022/07/06 00:41:02;;;;;;;;;2.67;2.67;;;;;21.07;55.57;102386.59;5058963;28;46171;-68
2022/07/06 00:43:27;;;;;;;;;3.00;3.00;;;;;21.03;56.14;102379.72;5061388;28;45405;-69
2022/07/06 00:45:53;;;;;;;;;5.00;3.33;;;;;20.97;56.75;102389.56;5056864;28;45401;-68
2022/07/06 00:48:18;;;;;;;;;5.33;3.33;;;;;21.09;55.90;102380.91;5060191;28;45626;-69
2022/07/06 00:50:43;;;;;;;;;5.00;4.00;;;;;21.08;56.54;102384.69;5057922;28;46240;-68
2022/07/06 00:53:09;;;;;;;;;3.00;3.00;;;;;21.06;55.84;102381.25;5051641;28;45495;-67
2022/07/06 00:55:41;;;;;;;;;3.00;3.00;;;;;20.99;56.65;102386.63;5058394;28;45386;-68
2022/07/06 00:58:08;;;;;;;;;5.00;4.00;;;;;21.03;56.54;102393.53;5060497;28;45429;-68
2022/07/06 01:00:35;;;;;;;;;3.67;3.00;;;;;21.07;55.07;102394.03;5055186;28;48624;-68
2022/07/06 01:03:01;;;;;;;;;3.00;3.00;;;;;21.09;55.39;102391.97;5059410;28;45485;-68
2022/07/06 01:05:27;;;;;;;;;2.67;2.67;;;;;20.93;56.65;102396.50;5059570;28;45515;-68
2022/07/06 01:07:53;;;;;;;;;3.33;3.33;;;;;20.89;57.17;102392.34;5059018;28;45535;-68
2022/07/06 01:10:20;;;;;;;;;6.00;4.67;;;;;20.88;57.07;102382.34;5055768;28;46585;-68
2022/07/06 01:12:46;;;;;;;;;3.33;3.33;;;;;20.94;55.91;102389.94;5060385;28;45467;-68
2022/07/06 01:15:23;;;;;;;;;4.00;4.00;;;;;21.02;56.05;102390.94;5060103;28;45229;-68
2022/07/06 01:17:49;;;;;;;;;3.00;3.00;;;;;20.99;56.20;102393.00;5057397;28;45483;-69
2022/07/06 01:20:22;;;;;;;;;4.00;2.00;;;;;20.95;56.23;102391.66;5059646;28;46401;-68
2022/07/06 01:22:50;;;;;;;;;6.00;4.33;;;;;21.00;55.84;102399.41;5055265;28;45383;-67
2022/07/06 01:25:16;;;;;;;;;4.67;4.00;;;;;20.97;56.85;102397.84;5076323;28;45338;-68
2022/07/06 01:27:42;;;;;;;;;3.00;3.00;;;;;20.91;56.28;102395.78;5059091;28;45629;-68
2022/07/06 01:30:17;;;;;;;;;6.00;4.00;;;;;20.93;56.84;102395.63;5058391;28;47003;-68
2022/07/06 01:32:43;;;;;;;;;3.33;3.33;;;;;20.87;56.79;102393.56;5059907;28;45386;-68
2022/07/06 01:35:11;;;;;;;;;3.33;3.00;;;;;20.87;56.59;102397.19;5060042;28;46229;-68
2022/07/06 01:37:36;;;;;;;;;3.67;3.67;;;;;20.80;58.34;102398.94;5062023;28;45370;-68
2022/07/06 01:40:07;;;;;;;;;6.00;5.00;;;;;20.62;58.76;102401.03;5058451;28;45526;-68
2022/07/06 01:42:33;;;;;;;;;4.00;4.00;;;;;20.68;58.97;102405.84;5050895;28;45350;-68
2022/07/06 01:44:59;;;;;;;;;4.33;4.33;;;;;20.71;58.65;102399.97;5060633;28;45374;-68
2022/07/06 01:47:24;;;;;;;;;4.00;4.00;;;;;20.75;56.42;102393.06;5060758;28;45318;-68
2022/07/06 01:49:50;;;;;;;;;4.67;4.00;;;;;20.71;58.49;102397.22;5061597;28;46197;-68
2022/07/06 01:52:15;;;;;;;;;6.00;5.00;;;;;20.73;58.17;102403.44;5056606;28;45502;-68
2022/07/06 01:54:41;;;;;;;;;6.00;6.00;;;;;20.73;57.74;102389.63;5064313;28;45313;-68
2022/07/06 01:57:06;;;;;;;;;6.00;5.00;;;;;20.73;58.71;102395.16;5056571;28;45588;-68
2022/07/06 01:59:32;;;;;;;;;6.00;6.00;;;;;20.66;58.40;102394.13;5064944;28;45692;-68
2022/07/06 02:01:57;;;;;;;;;4.00;3.67;;;;;20.66;58.69;102388.59;5057879;28;45396;-68
2022/07/06 02:04:23;;;;;;;;;5.33;5.33;;;;;20.70;58.57;102398.25;5060636;28;45291;-67
2022/07/06 02:06:48;;;;;;;;;6.00;5.00;;;;;20.87;57.95;102394.44;5058918;28;45478;-67
2022/07/06 02:09:13;;;;;;;;;7.00;7.00;;;;;20.79;58.73;102401.88;5064244;28;45330;-69
2022/07/06 02:11:39;;;;;;;;;4.00;4.00;;;;;20.76;58.17;102396.69;5057728;28;45374;-67
2022/07/06 02:14:04;;;;;;;;;5.33;5.00;;;;;20.73;58.18;102389.63;5065079;28;45315;-67
2022/07/06 02:16:30;;;;;;;;;5.67;5.67;;;;;20.69;58.55;102379.09;5058294;28;45590;-67
2022/07/06 02:18:55;;;;;;;;;5.33;4.00;;;;;20.66;59.59;102385.84;5064733;28;45499;-68
2022/07/06 02:21:20;;;;;;;;;6.33;6.00;;;;;20.54;59.71;102384.47;5058243;28;45388;-68
2022/07/06 02:23:46;;;;;;;;;6.00;6.00;;;;;20.56;59.07;102376.88;5063524;28;45372;-68
2022/07/06 02:26:11;;;;;;;;;5.00;5.00;;;;;20.53;58.82;102377.22;5058550;28;45579;-67
2022/07/06 02:28:36;;;;;;;;;6.00;5.00;;;;;20.53;59.36;102374.44;5062633;28;47470;-68
2022/07/06 02:31:02;;;;;;;;;7.00;6.33;;;;;20.41;60.39;102375.84;5059327;28;45399;-67
2022/07/06 02:33:27;;;;;;;;;4.33;4.33;;;;;20.43;60.69;102369.13;5064373;28;45413;-67
2022/07/06 02:35:53;;;;;;;;;5.67;5.67;;;;;20.36;60.12;102367.22;5062616;28;45486;-67
2022/07/06 02:38:18;;;;;;;;;6.33;6.33;;;;;20.43;59.62;102373.78;5079898;28;48102;-67
2022/07/06 02:40:43;;;;;;;;;6.00;6.00;;;;;20.39;60.33;102356.69;5063319;28;45136;-67
2022/07/06 02:43:08;;;;;;;;;8.00;6.67;;;;;20.35;60.29;102369.13;5057752;28;45283;-67
2022/07/06 02:45:34;;;;;;;;;5.33;5.00;;;;;20.40;60.72;102366.69;5062665;28;45276;-67
2022/07/06 02:47:59;;;;;;;;;5.67;5.00;;;;;20.43;60.31;102362.75;5056943;28;45354;-67
2022/07/06 02:50:25;;;;;;;;;7.00;5.33;;;;;20.35;60.64;102376.53;5062000;28;45373;-67
2022/07/06 02:52:50;;;;;;;;;8.00;6.33;;;;;20.33;61.21;102376.72;5057736;28;45399;-67
2022/07/06 02:55:16;;;;;;;;;8.00;8.00;;;;;20.38;61.26;102384.50;5062453;28;45415;-67
2022/07/06 02:57:42;;;;;;;;;7.33;6.00;;;;;20.35;61.52;102377.41;5056650;28;46113;-67
2022/07/06 03:00:09;;;;;;;;;5.33;5.33;;;;;20.22;61.19;102385.31;5061798;28;45398;-67
2022/07/06 03:02:34;;;;;;;;;9.00;8.00;;;;;20.22;61.13;102390.84;5063339;28;45329;-67
2022/07/06 03:05:00;;;;;;;;;7.33;6.33;;;;;20.22;61.88;102396.34;5062518;28;45685;-67
2022/07/06 03:07:25;;;;;;;;;4.67;4.67;;;;;20.20;60.68;102391.00;5058018;28;46503;-68
2022/07/06 03:09:50;;;;;;;;;7.67;7.00;;;;;20.09;62.06;102377.53;5062557;28;45377;-67
2022/07/06 03:12:16;;;;;;;;;6.00;6.00;;;;;20.06;62.10;102397.19;5058747;28;45523;-67
2022/07/06 03:14:42;;;;;;;;;6.00;6.00;;;;;19.96;63.59;102398.38;5064296;28;45585;-68
2022/07/06 03:17:07;;;;;;;;;8.00;7.00;;;;;19.96;63.13;102392.84;5076587;27;45474;-67
2022/07/06 03:19:32;;;;;;;;;9.00;9.00;;;;;19.99;62.27;102398.91;5063424;28;45305;-67
2022/07/06 03:21:58;;;;;;;;;8.33;8.33;;;;;20.04;62.80;102393.75;5060108;28;45517;-67
2022/07/06 03:24:23;;;;;;;;;8.67;8.67;;;;;20.05;62.55;102401.00;5061767;28;45224;-68
2022/07/06 03:26:49;;;;;;;;;9.67;7.33;;;;;19.99;63.21;102407.19;5058813;28;46436;-67
2022/07/06 03:29:14;;;;;;;;;7.00;7.00;;;;;19.80;63.49;102389.03;5060790;28;45468;-68
2022/07/06 03:31:39;;;;;;;;;7.67;7.67;;;;;19.94;63.09;102398.56;5055210;28;45340;-67
2022/07/06 03:34:06;;;;;;;;;8.67;8.67;;;;;20.07;62.78;102401.69;5059380;28;45362;-68
2022/07/06 03:36:31;;;;;;;;;7.67;7.67;;;;;20.04;63.00;102399.25;5055648;28;47807;-67
2022/07/06 03:38:56;;;;;;;;;9.33;7.00;;;;;20.05;62.16;102398.22;5058419;28;45445;-68
2022/07/06 03:41:22;;;;;;;;;7.00;7.00;;;;;20.11;62.50;102408.56;5060246;28;45793;-67
2022/07/06 03:43:47;;;;;;;;;7.00;7.00;;;;;20.19;62.00;102414.09;5062082;28;45481;-67
2022/07/06 03:46:12;;;;;;;;;8.00;8.00;;;;;19.94;63.71;102404.09;5073635;28;47287;-68
2022/07/06 03:48:38;;;;;;;;;5.00;5.00;;;;;19.88;62.95;102406.63;5062954;28;45275;-68
2022/07/06 03:51:03;;;;;;;;;7.33;7.33;;;;;19.86;63.96;102408.72;5056900;28;45443;-68
2022/07/06 03:53:28;;;;;;;;;9.00;7.33;;;;;19.88;63.91;102413.00;5063233;28;45337;-68
2022/07/06 03:58:38;;;;;;;;;9.33;8.00;;;;;19.91;64.28;102406.31;5061585;28;45378;-67
2022/07/06 04:01:03;;;;;;;;;10.33;7.67;;;;;19.94;63.52;102405.97;5056395;28;45493;-67
2022/07/06 04:03:28;;;;;;;;;8.33;7.67;;;;;19.85;64.25;102407.00;5063173;28;45472;-68
2022/07/06 04:05:53;;;;;;;;;8.33;8.33;;;;;19.85;63.89;102410.63;5056536;28;46761;-67
2022/07/06 04:08:19;;;;;;;;;8.00;8.00;;;;;19.83;64.27;102412.66;5062112;28;45388;-68
2022/07/06 04:10:45;;;;;;;;;6.33;6.33;;;;;19.78;64.77;102417.84;5058385;28;45362;-68
2022/07/06 04:13:11;;;;;;;;;6.67;6.67;;;;;19.76;64.91;102415.25;5061155;28;45377;-69
2022/07/06 04:15:36;;;;;;;;;8.33;8.00;;;;;19.78;64.93;102415.06;5060598;28;45476;-69
2022/07/06 04:18:03;;;;;;;;;10.33;8.67;;;;;19.65;64.76;102400.91;5062172;28;45349;-68
2022/07/06 04:20:28;;;;;;;;;10.33;8.67;;;;;19.77;64.64;102413.34;5060286;28;45709;-67
2022/07/06 04:22:53;;;;;;;;;9.33;8.00;;;;;19.99;63.18;102423.75;5061443;28;45207;-68
2022/07/06 04:25:19;;;;;;;;;8.00;7.00;;;;;19.85;64.19;102418.88;5057299;28;46121;-68
2022/07/06 04:27:45;;;;;;;;;10.67;8.00;;;;;19.78;64.27;102413.19;5061541;28;45298;-68
2022/07/06 04:30:11;;;;;;;;;9.33;8.00;;;;;19.77;64.33;102405.94;5076351;27;45501;-68
2022/07/06 04:32:36;;;;;;;;;12.00;9.00;;;;;19.89;64.60;102413.88;5061044;28;45444;-69
2022/07/06 04:35:04;;;;;;;;;9.00;9.00;;;;;19.67;65.59;102412.63;5061035;28;45440;-68
2022/07/06 04:37:29;;;;;;;;;12.00;10.00;;;;;19.79;64.64;102411.28;5057640;28;45385;-69
2022/07/06 04:39:54;;;;;;;;;9.67;9.67;;;;;19.76;64.20;102404.22;5062008;28;45239;-69
2022/07/06 04:42:20;;;;;;;;;7.00;7.00;;;;;19.84;63.83;102406.13;5059966;28;45647;-68
2022/07/06 04:44:45;;;;;;;;;8.33;8.33;;;;;19.97;63.13;102412.00;5060247;28;48138;-68
2022/07/06 04:47:11;;;;;;;;;8.00;8.00;;;;;19.94;64.30;102417.88;5057519;28;45996;-69
2022/07/06 04:49:37;;;;;;;;;10.00;9.33;;;;;20.02;63.95;102419.75;5061994;28;45388;-69
2022/07/06 04:52:02;;;;;;;;;17.00;10.67;;;;;19.92;64.33;102417.19;5055329;28;45512;-69
2022/07/06 04:54:28;;;;;;;;;10.00;8.67;;;;;20.15;62.92;102415.50;5061627;28;46341;-70
2022/07/06 04:56:53;;;;;;;;;8.00;8.00;;;;;20.36;61.85;102414.16;5056358;28;45398;-69
2022/07/06 04:59:19;;;;;;;;;11.00;10.00;;;;;20.57;61.67;102418.13;5061537;28;45432;-69
2022/07/06 05:01:44;;;;;;;;;12.67;12.67;;;;;20.64;61.24;102432.09;5054988;28;46475;-70
2022/07/06 05:04:10;;;;;;;;;14.67;11.00;;;;;20.67;60.59;102412.44;5061319;28;46162;-70
2022/07/06 05:06:35;;;;;;;;;11.67;11.00;;;;;20.76;59.97;102424.31;5055120;28;45456;-70
2022/07/06 05:09:01;;;;;;;;;12.67;10.00;;;;;20.82;60.06;102418.09;5061366;28;45230;-70
2022/07/06 05:11:27;;;;;;;;;11.00;10.00;;;;;20.95;59.07;102423.94;5055090;28;45645;-70
2022/07/06 05:13:53;;;;;;;;;10.00;8.33;;;;;20.98;58.92;102407.00;5060851;28;46505;-70
2022/07/06 05:16:18;;;;;;;;;9.00;9.00;;;;;21.15;58.58;102416.13;5058603;28;45451;-69
2022/07/06 05:18:43;;;;;;;;;12.00;11.00;;;;;21.29;58.56;102421.81;5059424;28;45262;-70
2022/07/06 05:21:09;;;;;;;;;12.33;10.00;;;;;21.39;57.88;102416.06;5058677;28;45580;-71
2022/07/06 05:23:34;;;;;;;;;9.67;9.33;;;;;21.37;57.28;102423.69;5060947;28;46130;-69
2022/07/06 05:25:59;;;;;;;;;13.00;8.67;;;;;21.42;57.19;102418.47;5057781;28;45374;-68
2022/07/06 05:28:25;;;;;;;;;10.33;10.33;;;;;21.37;56.47;102415.38;5058793;28;45254;-69
2022/07/06 05:30:50;;;;;;;;;8.67;8.67;;;;;21.56;56.91;102422.38;5061466;28;45313;-71
2022/07/06 05:33:16;;;;;;;;;7.67;7.33;;;;;21.67;56.08;102416.47;5063446;28;46321;-70
2022/07/06 05:35:41;;;;;;;;;13.00;11.67;;;;;21.83;55.66;102419.16;5059418;28;45199;-69
2022/07/06 05:38:07;;;;;;;;;11.33;11.33;;;;;21.79;55.51;102419.66;5062962;28;45611;-69
2022/07/06 05:40:32;;;;;;;;;10.33;10.33;;;;;22.04;54.06;102404.69;5061591;28;45417;-70
2022/07/06 05:42:57;;;;;;;;;10.67;10.33;;;;;23.32;51.42;102427.72;5061688;28;46627;-70
2022/07/06 05:45:23;;;;;;;;;11.00;10.00;;;;;23.94;49.29;102422.63;5062689;28;45394;-70
2022/07/06 05:50:32;;;;;;;;;13.00;11.33;;;;;23.25;50.02;102430.41;5060801;28;45333;-70
2022/07/06 05:53:04;;;;;;;;;10.33;9.33;;;;;23.01;50.69;102433.47;5062197;28;46914;-68
2022/07/06 05:55:30;;;;;;;;;13.67;10.00;;;;;22.93;51.68;102428.88;5076310;27;45373;-68
2022/07/06 05:57:56;;;;;;;;;8.00;8.00;;;;;22.95;51.84;102432.31;5051568;28;45401;-69
2022/07/06 06:00:23;;;;;;;;;7.00;7.00;;;;;22.87;51.16;102429.59;5061033;28;45283;-69
2022/07/06 06:02:49;;;;;;;;;12.00;12.00;;;;;22.82;51.59;102443.19;5060727;28;45435;-70
2022/07/06 06:05:14;;;;;;;;;10.00;10.00;;;;;22.85;51.29;102442.81;5061295;28;45310;-69
2022/07/06 06:07:40;;;;;;;;;9.00;9.00;;;;;23.13;51.04;102441.13;5062158;28;45324;-70
2022/07/06 06:10:08;;;;;;;;;10.33;9.67;;;;;23.90;48.39;102433.22;5062473;28;45191;-68
2022/07/06 06:12:34;;;;;;;;;9.00;8.33;;;;;23.93;47.67;102432.84;5061852;28;45487;-69
2022/07/06 06:15:00;;;;;;;;;6.00;6.00;;;;;24.58;47.14;102440.19;5062206;28;45329;-69
2022/07/06 06:17:25;;;;;;;;;16.00;10.00;;;;;24.80;46.45;102447.44;5057433;28;45461;-69
2022/07/06 06:19:51;;;;;;;;;9.00;9.00;;;;;24.46;46.20;102444.56;5063228;28;45326;-70
2022/07/06 06:22:16;;;;;;;;;7.00;7.00;;;;;24.25;46.95;102439.88;5055950;28;45409;-69
2022/07/06 06:24:41;;;;;;;;;9.00;9.00;;;;;24.10;47.00;102443.72;5061334;28;45443;-69
2022/07/06 06:27:07;;;;;;;;;11.33;8.00;;;;;24.04;46.83;102431.47;5057672;28;45442;-69
2022/07/06 06:29:32;;;;;;;;;9.33;7.33;;;;;24.15;46.77;102436.53;5061104;28;45366;-70
2022/07/06 06:31:58;;;;;;;;;7.67;7.67;;;;;23.96;47.36;102440.78;5053930;28;47836;-70
2022/07/06 06:34:23;;;;;;;;;12.67;10.67;;;;;23.67;48.82;102438.06;5060111;28;45443;-69
2022/07/06 06:36:49;;;;;;;;;14.67;8.67;;;;;23.56;48.96;102435.78;5060566;28;45429;-70
2022/07/06 06:39:14;;;;;;;;;14.00;11.33;;;;;23.79;48.51;102446.78;5063547;28;45191;-68
2022/07/06 06:41:40;;;;;;;;;12.33;10.67;;;;;23.71;48.03;102444.09;5057685;28;45471;-69
2022/07/06 06:44:05;;;;;;;;;11.00;9.00;;;;;23.91;47.92;102434.09;5061308;28;45382;-69
2022/07/06 06:46:30;;;;;;;;;11.00;11.00;;;;;24.12;47.10;102438.81;5071638;27;48319;-69
2022/07/06 06:48:55;;;;;;;;;8.67;8.00;;;;;24.03;46.67;102444.53;5061862;28;45409;-69
2022/07/06 06:51:21;;;;;;;;;10.00;7.67;;;;;24.11;46.18;102451.00;5060071;28;45342;-69
2022/07/06 06:53:47;;;;;;;;;10.00;10.00;;;;;23.92;46.25;102445.00;5061896;28;45416;-70
2022/07/06 06:56:12;;;;;;;;;7.33;6.00;;;;;23.85;45.99;102446.84;5056387;28;45448;-69
2022/07/06 06:58:38;;;;;;;;;11.00;11.00;;;;;23.86;45.92;102451.34;5063194;28;45513;-70
2022/07/06 07:01:04;;;;;;;;;10.67;8.67;;;;;23.75;46.46;102454.59;5055837;28;46555;-70
2022/07/06 07:03:30;;;;;;;;;7.33;6.33;;;;;24.09;45.95;102458.66;5062140;28;45397;-70
2022/07/06 07:05:55;;;;;;;;;8.33;7.00;;;;;24.20;45.19;102450.69;5059694;28;45524;-69
2022/07/06 07:08:21;;;;;;;;;11.00;9.00;;;;;24.24;44.31;102459.50;5061291;28;45482;-68
2022/07/06 07:10:46;;;;;;;;;11.33;11.33;;;;;24.01;44.58;102442.97;5072917;27;48603;-70
2022/07/06 07:13:12;;;;;;;;;7.33;7.33;;;;;24.09;44.31;102458.66;5060807;28;45318;-69
2022/07/06 07:15:37;;;;;;;;;7.00;7.00;;;;;24.34;44.36;102458.13;5076138;28;45377;-69
2022/07/06 07:18:02;;;;;;;;;6.33;6.33;;;;;24.44;43.04;102446.69;5060928;28;45678;-70
2022/07/06 07:20:29;;;;;;;;;6.33;5.00;;;;;24.43;42.08;102456.06;5060481;28;46568;-69
2022/07/06 07:22:55;;;;;;;;;4.00;4.00;;;;;24.00;42.59;102456.00;5060248;28;45208;-69
2022/07/06 07:25:20;;;;;;;;;5.00;4.00;;;;;23.95;42.90;102461.28;5059926;28;45353;-70
2022/07/06 07:27:46;;;;;;;;;4.33;4.33;;;;;24.17;43.24;102453.84;5061148;28;45354;-70
2022/07/06 07:30:11;;;;;;;;;8.00;6.33;;;;;24.36;43.09;102444.91;5060493;28;46486;-71
2022/07/06 07:32:40;;;;;;;;;5.33;5.33;;;;;24.68;42.08;102460.19;5060098;28;45271;-69
2022/07/06 07:35:06;;;;;;;;;5.00;5.00;;;;;24.43;41.30;102447.72;5061144;28;45373;-71
2022/07/06 07:37:31;;;;;;;;;9.67;7.00;;;;;24.55;41.19;102448.91;5054266;28;45262;-70
2022/07/06 07:39:56;;;;;;;;;7.67;7.67;;;;;24.66;42.14;102445.59;5061763;28;45397;-70
2022/07/06 07:42:22;;;;;;;;;7.33;5.33;;;;;24.83;40.64;102441.50;5054018;28;46403;-70
2022/07/06 07:44:47;;;;;;;;;4.33;4.33;;;;;24.91;40.28;102450.78;5061359;28;45402;-70
2022/07/06 07:47:12;;;;;;;;;5.67;4.33;;;;;25.06;37.87;102441.25;5054226;28;45409;-70
2022/07/06 07:49:38;;;;;;;;;5.00;5.00;;;;;25.12;38.44;102442.38;5062397;28;46299;-69
2022/07/06 07:52:03;;;;;;;;;4.00;4.00;;;;;25.33;38.61;102442.28;5052463;28;45209;-69
2022/07/06 07:54:29;;;;;;;;;5.00;5.00;;;;;25.38;38.45;102444.44;5077132;28;45263;-70
2022/07/06 07:56:54;;;;;;;;;8.00;6.00;;;;;25.52;38.27;102444.31;5057685;28;45567;-69
2022/07/06 07:59:19;;;;;;;;;7.00;7.00;;;;;25.42;38.04;102434.66;5059063;28;45392;-72
2022/07/06 08:01:45;;;;;;;;;6.00;5.67;;;;;25.48;39.09;102445.81;5052272;28;45340;-70
2022/07/06 08:04:10;;;;;;;;;8.00;7.00;;;;;25.56;38.95;102448.44;5061865;28;45242;-70
2022/07/06 08:06:35;;;;;;;;;10.00;7.67;;;;;25.41;38.56;102447.69;5058845;28;45392;-70
2022/07/06 08:09:03;;;;;;;;;7.00;5.00;;;;;25.45;39.00;102432.28;5061873;28;46573;-70
2022/07/06 08:11:28;;;;;;;;;8.00;7.00;;;;;25.47;38.65;102438.53;5059304;28;45397;-71
2022/07/06 08:13:54;;;;;;;;;4.00;4.00;;;;;25.32;39.21;102435.00;5060526;28;45414;-70
2022/07/06 08:16:19;;;;;;;;;7.00;6.00;;;;;25.53;38.94;102431.25;5056950;28;45556;-71
2022/07/06 08:18:44;;;;;;;;;10.00;9.33;;;;;25.48;38.46;102437.47;5059676;28;46224;-71
2022/07/06 08:21:11;;;;;;;;;9.00;8.00;;;;;25.71;38.40;102439.97;5057620;28;45477;-71
2022/07/06 08:23:36;;;;;;;;;6.33;6.33;;;;;25.87;37.92;102444.28;5059547;28;45384;-71
2022/07/06 08:26:02;;;;;;;;;8.00;7.00;;;;;25.78;37.58;102443.63;5058538;28;45483;-71
2022/07/06 08:28:28;;;;;;;;;9.00;7.67;;;;;25.73;38.61;102439.72;5059800;28;45625;-72
2022/07/06 08:30:54;;;;;;;;;7.67;6.00;;;;;25.60;38.65;102434.97;5058402;28;45310;-70
2022/07/06 08:33:20;;;;;;;;;8.00;7.33;;;;;25.70;38.46;102435.47;5060544;28;45379;-70
2022/07/06 08:35:46;;;;;;;;;7.00;5.67;;;;;25.85;37.91;102433.38;5059100;28;45360;-69
2022/07/06 08:38:11;;;;;;;;;7.67;6.33;;;;;25.55;39.40;102443.06;5060365;28;45460;-69
2022/07/06 08:40:39;;;;;;;;;5.00;3.33;;;;;25.64;38.92;102433.50;5058901;28;45225;-70
2022/07/06 08:43:05;;;;;;;;;9.00;9.00;;;;;25.88;38.61;102437.66;5058393;28;45337;-72
2022/07/06 08:45:33;;;;;;;;;10.00;9.33;;;;;26.07;38.37;102442.44;5058176;28;45417;-70
2022/07/06 08:48:04;;;;;;;;;8.33;5.67;;;;;25.80;38.53;102440.63;5057681;28;46452;-70
2022/07/06 08:50:29;;;;;;;;;8.33;7.00;;;;;26.16;38.15;102431.94;5058450;28;45472;-70
2022/07/06 08:52:54;;;;;;;;;8.33;8.33;;;;;26.33;37.41;102427.75;5057301;28;45383;-70
2022/07/06 08:55:20;;;;;;;;;8.00;7.00;;;;;26.42;36.87;102420.03;5060193;28;45298;-71
2022/07/06 08:57:48;;;;;;;;;8.00;5.00;;;;;26.50;37.32;102433.78;5056471;28;45414;-70
2022/07/06 09:00:15;;;;;;;;;6.33;6.00;;;;;26.22;37.96;102429.19;5058867;28;45477;-71
2022/07/06 09:02:41;;;;;;;;;8.00;6.00;;;;;26.50;37.68;102419.84;5056337;28;45423;-71
2022/07/06 09:05:08;;;;;;;;;7.00;5.67;;;;;26.16;37.58;102416.09;5063319;28;45305;-70
2022/07/06 09:07:34;;;;;;;;;8.33;7.67;;;;;26.51;37.21;102418.75;5059375;28;46724;-70
2022/07/06 09:10:00;;;;;;;;;9.00;7.67;;;;;26.74;36.97;102422.81;5063459;28;45382;-71
2022/07/06 09:12:28;;;;;;;;;6.33;5.00;;;;;26.89;36.36;102417.03;5057937;28;45308;-71
2022/07/06 09:14:57;;;;;;;;;5.33;4.00;;;;;27.20;36.00;102419.16;5064447;28;45323;-71
2022/07/06 09:17:29;;;;;;;;;6.00;6.00;;;;;27.54;35.41;102418.03;5060020;28;47862;-69
2022/07/06 09:19:56;;;;;;;;;5.67;4.00;;;;;27.82;35.06;102412.09;5064191;28;45227;-70
2022/07/06 09:22:32;;;;;;;;;7.00;5.00;;;;;28.08;35.20;102397.13;5076631;28;45515;-70
2022/07/06 09:25:06;;;;;;;;;8.67;6.00;;;;;28.22;34.10;102410.81;5052393;28;45255;-70
2022/07/06 09:27:36;;;;;;;;;6.00;5.00;;;;;28.36;34.60;102402.31;5060767;28;46353;-70
2022/07/06 09:30:02;;;;;;;;;5.00;4.67;;;;;28.49;34.03;102402.25;5063492;28;45244;-71
2022/07/06 09:32:27;;;;;;;;;4.33;4.00;;;;;27.84;33.94;102395.97;5059032;28;45247;-71
2022/07/06 09:34:54;;;;;;;;;8.67;7.33;;;;;27.82;35.44;102407.38;5065250;28;45369;-71
2022/07/06 09:37:21;;;;;;;;;10.00;8.33;;;;;28.03;34.61;102402.53;5062107;28;45564;-70
2022/07/06 09:39:47;;;;;;;;;27.25;26.00;;;;;27.79;34.90;102409.75;5064538;28;45319;-70
2022/07/06 09:42:12;;;;;;;;;7.00;7.00;;;;;28.03;34.45;102399.75;5061953;28;45457;-71
2022/07/06 09:44:40;;;;;;;;;5.00;4.00;;;;;28.32;32.65;102406.66;5064444;28;45641;-71
2022/07/06 09:47:11;;;;;;;;;5.67;4.67;;;;;28.62;32.29;102402.13;5057857;28;45302;-71
2022/07/06 09:49:38;;;;;;;;;5.67;4.00;;;;;28.40;31.19;102404.47;5058833;28;45289;-71
2022/07/06 09:52:06;;;;;;;;;10.00;10.00;;;;;28.61;32.05;102401.28;5059016;28;45396;-71
2022/07/06 09:54:34;;;;;;;;;5.00;5.00;;;;;29.08;31.65;102401.69;5055834;28;45556;-72
2022/07/06 09:57:00;;;;;;;;;6.33;4.67;;;;;28.49;32.07;102405.88;5055991;28;47302;-72
2022/07/06 09:59:28;;;;;;;;;4.00;4.00;;;;;28.22;33.01;102402.44;5063872;28;45421;-72
2022/07/06 10:02:14;;;;;;;;;7.67;5.33;;;;;28.32;33.83;102415.91;5059982;28;45535;-72
2022/07/06 10:04:40;;;;;;;;;6.00;4.33;;;;;29.04;32.07;102406.06;5063385;28;45343;-72
2022/07/06 10:07:07;;;;;;;;;7.00;5.67;;;;;29.37;31.06;102398.19;5058075;28;45518;-71
2022/07/06 10:09:33;;;;;;;;;5.33;4.00;;;;;29.40;31.48;102406.13;5058685;28;45362;-71
2022/07/06 10:12:02;;;;;;;;;5.00;5.00;;;;;28.93;31.43;102399.28;5062230;28;45676;-72
2022/07/06 10:14:33;;;;;;;;;7.33;6.00;;;;;28.74;31.75;102405.88;5079884;28;45401;-72
2022/07/06 10:17:01;;;;;;;;;5.00;5.00;;;;;28.94;32.09;102400.13;5056807;28;46838;-71
2022/07/06 10:19:28;;;;;;;;;5.00;4.67;;;;;28.80;31.57;102391.00;5062435;28;45374;-71
2022/07/06 10:21:58;;;;;;;;;5.00;5.00;;;;;29.06;31.58;102395.50;5081294;27;45479;-71
2022/07/06 10:24:24;;;;;;;;;7.67;6.33;;;;;29.42;31.64;102398.34;5067740;28;45246;-71
2022/07/06 10:26:50;;;;;;;;;5.00;5.00;;;;;29.50;31.23;102393.53;5059579;28;45333;-72
2022/07/06 10:29:15;;;;;;;;;4.67;4.67;;;;;30.07;29.72;102400.53;5063197;28;45301;-71
2022/07/06 10:31:45;;;;;;;;;5.00;5.00;;;;;30.00;30.13;102395.03;5059062;28;45284;-72
2022/07/06 10:34:12;;;;;;;;;6.00;6.00;;;;;30.75;29.35;102394.50;5063686;28;45383;-72
2022/07/06 10:36:39;;;;;;;;;4.67;4.00;;;;;31.37;29.15;102389.22;5075545;27;47918;-72
2022/07/06 10:41:02;;;;;;;;;6.00;6.00;;;;;31.31;28.22;102393.88;5062263;28;45427;-72
2022/07/06 10:41:50;;;;;;;;;5.67;5.67;;;;;31.19;28.14;102398.69;5056837;28;45643;-72
2022/07/06 10:44:18;;;;;;;;;6.00;5.33;;;;;31.27;28.52;102395.47;5064365;28;45389;-72
2022/07/06 10:46:58;;;;;;;;;7.00;7.00;;;;;31.12;28.56;102395.16;5059393;28;45528;-72
2022/07/06 10:49:25;;;;;;;;;6.33;6.33;;;;;31.24;28.30;102402.44;5063829;28;45356;-73
2022/07/06 10:51:51;;;;;;;;;6.00;6.00;;;;;30.66;28.84;102396.81;5057097;28;45283;-72
2022/07/06 10:54:19;;;;;;;;;7.00;7.00;;;;;29.85;30.17;102396.50;5063091;28;45327;-72
2022/07/06 10:56:46;;;;;;;;;7.00;6.00;;;;;30.86;29.51;102391.69;5060060;28;45756;-72
2022/07/06 10:59:22;;;;;;;;;8.67;8.67;;;;;30.39;29.70;102392.72;5062466;28;45438;-70
2022/07/06 11:02:13;;;;;;;;;6.00;6.00;;;;;30.36;30.05;102393.19;5057906;28;45645;-72
2022/07/06 11:04:40;;;;;;;;;5.67;5.67;;;;;30.16;29.91;102397.16;5073121;27;45439;-72
2022/07/06 11:07:13;;;;;;;;;10.67;8.00;;;;;30.34;29.28;102389.75;5056539;28;48331;-72
2022/07/06 11:09:40;;;;;;;;;7.67;7.67;;;;;30.72;29.17;102390.22;5059997;28;45338;-73
2022/07/06 11:12:19;;;;;;;;;5.00;5.00;;;;;31.14;28.12;102381.69;5057102;28;45378;-72
2022/07/06 11:14:47;;;;;;;;;7.00;7.00;;;;;31.11;27.97;102379.41;5060615;28;45399;-72
2022/07/06 11:17:13;;;;;;;;;7.67;7.67;;;;;30.44;29.15;102373.19;5058227;28;46125;-72
2022/07/06 11:19:47;;;;;;;;;9.00;9.00;;;;;29.89;30.67;102386.53;5064716;28;45452;-71
2022/07/06 11:22:15;;;;;;;;;9.00;7.00;;;;;30.39;29.87;102375.88;5061164;28;45402;-69
2022/07/06 11:24:41;;;;;;;;;9.67;8.00;;;;;30.89;29.22;102380.00;5063844;28;45518;-71